Time;durP1;ratioP1;P1;durP2;ratioP2;P2;SDS_P1;SDS_P2;PMS_P1;PMS_P2;Temp;Humidity;BMP_temperature;BMP_pressure;BME280_temperature;BME280_humidity;BME280_pressure;Samples;Min_cycle;Max_cycle;Signal;HPM_P1;HPM_P2
2023/11/28 00:00:55;;;;;;;16.95;8.50;;;0.70;99.90;;;;;;5001314;28;20026;-87
2023/11/28 00:03:21;;;;;;;14.00;9.65;;;0.70;99.90;;;;;;5002029;28;20095;-87
2023/11/28 00:05:47;;;;;;;24.27;8.35;;;0.70;99.90;;;;;;4964182;28;20787;-87
2023/11/28 00:08:13;;;;;;;11.93;7.20;;;0.70;99.90;;;;;;4984855;28;20034;-86
2023/11/28 00:10:38;;;;;;;9.48;7.55;;;0.70;99.90;;;;;;4962287;28;20034;-87
2023/11/28 00:13:04;;;;;;;14.23;8.02;;;0.70;99.90;;;;;;4985410;28;20038;-87
2023/11/28 00:15:29;;;;;;;15.77;9.50;;;0.70;99.90;;;;;;4999759;28;20088;-83
2023/11/28 00:17:55;;;;;;;21.33;10.50;;;0.70;99.90;;;;;;4999229;28;20041;-87
2023/11/28 00:20:20;;;;;;;18.23;8.68;;;0.70;99.90;;;;;;4976923;28;20097;-86
2023/11/28 00:22:46;;;;;;;16.63;8.18;;;0.70;99.90;;;;;;4998985;28;20448;-86
2023/11/28 00:25:12;;;;;;;19.10;8.32;;;0.70;99.90;;;;;;4999817;28;20044;-86
2023/11/28 00:27:37;;;;;;;16.15;7.78;;;0.70;99.90;;;;;;5001999;28;20026;-86
2023/11/28 00:30:03;;;;;;;12.57;7.32;;;0.70;99.90;;;;;;4985986;28;20041;-86
2023/11/28 00:32:29;;;;;;;15.38;7.78;;;0.60;99.90;;;;;;4991734;28;20111;-87
2023/11/28 00:34:55;;;;;;;14.10;9.43;;;0.70;99.90;;;;;;4982511;28;20559;-87
2023/11/28 00:37:21;;;;;;;13.80;7.82;;;0.70;99.90;;;;;;4983825;28;20038;-86
2023/11/28 00:39:48;;;;;;;12.68;6.55;;;0.70;99.90;;;;;;4998166;28;20393;-86
2023/11/28 00:42:13;;;;;;;9.35;6.63;;;0.70;99.90;;;;;;4979653;28;20494;-87
2023/11/28 00:44:42;;;;;;;9.20;6.80;;;0.70;99.90;;;;;;5015044;28;20076;-87
2023/11/28 00:47:09;;;;;;;11.88;7.35;;;0.70;99.90;;;;;;4987382;28;20113;-86
2023/11/28 00:49:35;;;;;;;11.80;7.45;;;0.70;99.90;;;;;;5002087;28;20089;-85
2023/11/28 00:52:00;;;;;;;9.82;6.30;;;0.60;99.90;;;;;;5000313;28;20041;-84
2023/11/28 00:54:26;;;;;;;12.60;6.63;;;0.70;99.90;;;;;;4987345;28;20052;-86
2023/11/28 00:56:52;;;;;;;12.20;7.93;;;0.60;99.90;;;;;;4999944;28;20054;-87
2023/11/28 00:59:17;;;;;;;8.35;6.43;;;0.60;99.90;;;;;;5015007;28;20034;-87
2023/11/28 01:01:43;;;;;;;13.50;5.97;;;0.70;99.90;;;;;;4974288;28;20393;-87
2023/11/28 01:04:09;;;;;;;7.10;5.00;;;0.60;99.90;;;;;;4979759;28;20045;-85
2023/11/28 01:06:34;;;;;;;10.63;6.38;;;0.70;99.90;;;;;;4975598;28;20046;-87
2023/11/28 01:09:00;;;;;;;6.18;5.28;;;0.70;99.90;;;;;;5000933;28;20033;-86
2023/11/28 01:11:26;;;;;;;5.28;4.75;;;0.60;99.90;;;;;;4979476;28;20062;-88
2023/11/28 01:13:51;;;;;;;7.60;4.85;;;0.60;99.90;;;;;;4985286;28;20108;-86
2023/11/28 01:16:17;;;;;;;7.63;3.78;;;0.60;99.90;;;;;;4978291;28;20030;-86
2023/11/28 01:18:44;;;;;;;4.43;3.90;;;0.60;99.90;;;;;;4985829;28;20033;-85
2023/11/28 01:21:10;;;;;;;6.20;4.80;;;0.70;99.90;;;;;;4999411;28;20026;-87
2023/11/28 01:23:35;;;;;;;4.32;3.92;;;0.70;99.90;;;;;;5000108;28;20152;-86
2023/11/28 01:26:01;;;;;;;7.30;4.07;;;0.60;99.90;;;;;;4997415;28;20030;-86
2023/11/28 01:28:26;;;;;;;8.60;4.97;;;0.70;99.90;;;;;;4987192;28;20049;-86
2023/11/28 01:30:52;;;;;;;6.18;4.32;;;0.70;99.90;;;;;;4993903;28;20038;-87
2023/11/28 01:33:18;;;;;;;6.20;4.07;;;0.60;99.90;;;;;;4972367;28;20119;-85
2023/11/28 01:35:43;;;;;;;5.05;4.55;;;0.60;99.90;;;;;;4977141;28;20030;-84
2023/11/28 01:38:09;;;;;;;7.70;4.25;;;0.70;99.90;;;;;;5001136;28;20029;-84
2023/11/28 01:40:34;;;;;;;3.83;3.42;;;0.70;99.90;;;;;;4970032;28;20046;-84
2023/11/28 01:43:00;;;;;;;4.03;3.42;;;0.70;99.90;;;;;;4970326;28;20488;-83
2023/11/28 01:45:25;;;;;;;5.15;3.92;;;0.70;99.90;;;;;;4984540;28;20079;-83
2023/11/28 01:47:54;;;;;;;5.32;4.65;;;0.60;99.90;;;;;;4977989;28;20394;-83
2023/11/28 01:50:19;;;;;;;3.90;3.30;;;0.60;99.90;;;;;;4980320;28;20076;-83
2023/11/28 01:52:45;;;;;;;4.97;4.57;;;0.70;99.90;;;;;;4979827;28;20628;-83
2023/11/28 01:55:11;;;;;;;5.82;5.15;;;0.60;99.90;;;;;;4986133;28;20546;-84
2023/11/28 01:57:37;;;;;;;6.20;4.07;;;0.70;99.90;;;;;;4999850;28;20035;-84
2023/11/28 02:00:03;;;;;;;6.75;5.60;;;0.60;99.90;;;;;;4999892;28;20393;-82
2023/11/28 02:02:29;;;;;;;6.10;4.32;;;0.60;99.90;;;;;;4984757;28;20037;-80
2023/11/28 02:04:55;;;;;;;4.93;4.53;;;0.60;99.90;;;;;;4983344;28;20054;-80
2023/11/28 02:07:21;;;;;;;6.95;5.47;;;0.60;99.90;;;;;;4984730;28;20109;-79
2023/11/28 02:09:47;;;;;;;6.88;4.22;;;0.60;99.90;;;;;;4982289;28;20133;-80
2023/11/28 02:12:12;;;;;;;8.07;6.03;;;0.60;99.90;;;;;;4985951;28;20117;-79
2023/11/28 02:14:44;;;;;;;8.50;5.80;;;0.60;99.90;;;;;;4987841;28;20033;-79
2023/11/28 02:17:10;;;;;;;7.07;4.40;;;0.60;99.90;;;;;;4970446;28;20442;-79
2023/11/28 02:19:35;;;;;;;7.38;5.47;;;0.60;99.90;;;;;;4968943;28;20055;-80
2023/11/28 02:22:01;;;;;;;7.45;6.03;;;0.60;99.90;;;;;;4962458;28;20081;-80
2023/11/28 02:24:27;;;;;;;6.63;5.88;;;0.60;99.90;;;;;;4958784;28;20516;-79
2023/11/28 02:26:53;;;;;;;6.43;5.70;;;0.60;99.90;;;;;;4993862;28;20096;-79
2023/11/28 02:29:18;;;;;;;6.32;5.32;;;0.60;99.90;;;;;;4972694;28;20042;-80
2023/11/28 02:31:44;;;;;;;9.48;8.02;;;0.60;99.90;;;;;;4981689;28;20050;-79
2023/11/28 02:34:10;;;;;;;7.53;6.80;;;0.60;99.90;;;;;;4999860;28;20030;-80
2023/11/28 02:36:35;;;;;;;11.13;7.30;;;0.60;99.90;;;;;;5000455;28;20045;-80
2023/11/28 02:39:01;;;;;;;8.63;7.38;;;0.80;99.90;;;;;;4989569;28;20022;-79
2023/11/28 02:41:26;;;;;;;8.45;6.68;;;0.60;99.90;;;;;;4985320;28;20478;-79
2023/11/28 02:43:52;;;;;;;9.63;8.73;;;0.60;99.90;;;;;;4997072;28;20390;-79
2023/11/28 02:46:17;;;;;;;12.70;9.50;;;0.60;99.90;;;;;;4971287;28;20046;-80
2023/11/28 02:48:43;;;;;;;8.07;7.25;;;0.60;99.90;;;;;;4989550;28;20061;-80
2023/11/28 02:51:11;;;;;;;8.52;7.65;;;0.60;99.90;;;;;;4989626;28;20034;-80
2023/11/28 02:53:36;;;;;;;9.25;8.35;;;0.60;99.90;;;;;;4982830;28;20034;-78
2023/11/28 02:56:02;;;;;;;9.32;7.82;;;0.60;99.90;;;;;;4997701;28;20038;-79
2023/11/28 02:58:27;;;;;;;10.05;8.63;;;0.60;99.90;;;;;;4998931;28;20061;-79
2023/11/28 03:00:53;;;;;;;8.52;7.72;;;0.60;99.90;;;;;;4988940;28;20389;-79
2023/11/28 03:03:18;;;;;;;9.32;8.43;;;0.60;99.90;;;;;;4969693;28;20038;-78
2023/11/28 03:05:44;;;;;;;10.75;9.52;;;0.60;99.90;;;;;;4972992;28;20456;-78
2023/11/28 03:08:10;;;;;;;11.57;10.38;;;0.60;99.90;;;;;;4974835;28;20118;-79
2023/11/28 03:10:35;;;;;;;13.50;12.30;;;0.60;99.90;;;;;;5015680;28;20096;-79
2023/11/28 03:13:01;;;;;;;13.85;12.55;;;0.60;99.90;;;;;;4977685;28;20034;-79
2023/11/28 03:15:27;;;;;;;13.35;10.38;;;0.60;99.90;;;;;;4982800;28;20031;-79
2023/11/28 03:17:52;;;;;;;12.75;11.45;;;0.60;99.90;;;;;;4999971;28;20034;-79
2023/11/28 03:20:18;;;;;;;13.60;12.30;;;0.60;99.90;;;;;;5003772;28;20042;-79
2023/11/28 03:22:43;;;;;;;13.30;12.05;;;0.60;99.90;;;;;;4986559;28;20060;-79
2023/11/28 03:25:13;;;;;;;11.77;10.63;;;0.60;99.90;;;;;;4983426;28;20034;-79
2023/11/28 03:27:39;;;;;;;14.35;13.02;;;0.60;99.90;;;;;;5004141;28;20148;-79
2023/11/28 03:30:05;;;;;;;11.00;9.90;;;0.60;99.90;;;;;;4997171;28;20524;-80
2023/11/28 03:32:31;;;;;;;10.27;9.27;;;0.60;99.90;;;;;;4990240;28;20836;-79
2023/11/28 03:34:56;;;;;;;10.65;9.55;;;0.60;99.90;;;;;;4998872;28;20047;-79
2023/11/28 03:37:25;;;;;;;12.07;11.07;;;0.60;99.90;;;;;;4982892;28;20463;-79
2023/11/28 03:39:51;;;;;;;12.38;11.23;;;0.60;99.90;;;;;;4997223;28;20137;-79
2023/11/28 03:42:17;;;;;;;11.77;10.57;;;0.60;99.90;;;;;;5003350;28;20536;-81
2023/11/28 03:44:43;;;;;;;11.43;10.25;;;0.60;99.90;;;;;;4974060;28;20478;-79
2023/11/28 03:47:08;;;;;;;17.95;9.98;;;0.60;99.90;;;;;;4979396;28;20081;-79
2023/11/28 03:49:34;;;;;;;12.13;11.13;;;0.50;99.90;;;;;;4975923;28;20097;-79
2023/11/28 03:51:59;;;;;;;11.07;9.55;;;0.60;99.90;;;;;;4980441;28;20043;-78
2023/11/28 03:54:25;;;;;;;9.70;8.57;;;0.60;99.90;;;;;;5001964;28;20068;-79
2023/11/28 03:56:50;;;;;;;11.02;9.88;;;0.60;99.90;;;;;;4985327;28;20043;-79
2023/11/28 03:59:17;;;;;;;11.70;10.10;;;0.60;99.90;;;;;;4988948;28;20029;-79
2023/11/28 04:01:43;;;;;;;11.70;10.48;;;0.60;99.90;;;;;;5002423;28;20520;-79
2023/11/28 04:04:08;;;;;;;12.88;11.60;;;0.60;99.90;;;;;;4999610;28;20053;-78
2023/11/28 04:06:34;;;;;;;15.43;12.27;;;0.60;99.90;;;;;;4987549;28;20042;-79
2023/11/28 04:08:59;;;;;;;13.70;12.30;;;0.60;99.90;;;;;;5004373;28;20032;-80
2023/11/28 04:11:25;;;;;;;14.38;11.32;;;0.60;99.90;;;;;;4985081;28;20060;-80
2023/11/28 04:13:50;;;;;;;14.43;12.93;;;0.60;99.90;;;;;;4986765;28;20418;-81
2023/11/28 04:16:17;;;;;;;16.33;14.65;;;0.60;99.90;;;;;;4995750;28;20054;-80
2023/11/28 04:18:44;;;;;;;14.68;12.70;;;0.60;99.90;;;;;;5010959;28;20034;-80
2023/11/28 04:21:15;;;;;;;16.80;14.38;;;0.60;99.90;;;;;;4996482;28;20031;-79
2023/11/28 04:23:41;;;;;;;16.55;14.13;;;0.60;99.90;;;;;;4991628;28;20046;-79
2023/11/28 04:26:07;;;;;;;17.77;12.93;;;0.60;99.90;;;;;;4998333;28;20608;-79
2023/11/28 04:28:33;;;;;;;16.13;12.32;;;0.60;99.90;;;;;;4975105;28;20088;-78
2023/11/28 04:30:58;;;;;;;16.30;13.05;;;0.60;99.90;;;;;;4974125;28;20478;-79
2023/11/28 04:33:24;;;;;;;15.90;11.88;;;0.60;99.90;;;;;;4967775;28;20089;-79
2023/11/28 04:35:49;;;;;;;15.40;13.80;;;0.60;99.90;;;;;;4982602;28;20553;-80
2023/11/28 04:38:16;;;;;;;15.98;14.40;;;0.60;99.90;;;;;;4967566;28;20125;-80
2023/11/28 04:40:41;;;;;;;17.13;14.93;;;0.60;99.90;;;;;;4964081;28;20050;-78
2023/11/28 04:43:07;;;;;;;15.50;11.55;;;0.60;99.90;;;;;;4955635;28;20402;-80
2023/11/28 04:45:33;;;;;;;18.02;16.23;;;0.60;99.90;;;;;;4999162;28;20041;-79
2023/11/28 04:47:58;;;;;;;16.08;14.18;;;0.60;99.90;;;;;;4988042;28;20666;-79
2023/11/28 04:50:24;;;;;;;15.90;14.35;;;0.60;99.90;;;;;;4987266;28;20026;-80
2023/11/28 04:52:50;;;;;;;17.55;14.77;;;0.60;99.90;;;;;;4988567;28;20088;-81
2023/11/28 04:55:15;;;;;;;16.42;14.52;;;0.60;99.90;;;;;;4986230;28;20401;-78
2023/11/28 04:57:41;;;;;;;16.80;14.23;;;0.50;99.90;;;;;;4953666;28;20042;-79
2023/11/28 05:00:08;;;;;;;15.98;12.32;;;0.50;99.90;;;;;;4990914;28;20666;-80
2023/11/28 05:02:34;;;;;;;14.55;12.55;;;0.60;99.90;;;;;;4984870;28;20113;-79
2023/11/28 05:05:00;;;;;;;13.50;12.05;;;0.60;99.90;;;;;;4980991;28;20143;-80
2023/11/28 05:07:25;;;;;;;16.60;11.23;;;0.50;99.90;;;;;;4977438;28;20034;-80
2023/11/28 05:09:51;;;;;;;13.15;9.35;;;0.50;99.90;;;;;;4978887;28;20053;-79
2023/11/28 05:12:17;;;;;;;15.13;9.82;;;0.50;99.90;;;;;;4992870;28;20322;-79
2023/11/28 05:14:42;;;;;;;13.23;10.68;;;0.60;99.90;;;;;;4984919;28;20128;-79
2023/11/28 05:17:08;;;;;;;14.73;11.27;;;0.60;99.90;;;;;;4987108;28;20030;-78
2023/11/28 05:19:34;;;;;;;13.55;10.60;;;0.50;99.90;;;;;;4999919;28;20037;-80
2023/11/28 05:21:59;;;;;;;15.40;11.15;;;0.60;99.90;;;;;;4987881;28;20050;-79
2023/11/28 05:24:25;;;;;;;13.85;10.77;;;0.60;99.90;;;;;;4986481;28;20026;-79
2023/11/28 05:26:50;;;;;;;14.73;10.15;;;0.50;99.90;;;;;;4996037;28;20038;-79
2023/11/28 05:29:16;;;;;;;14.80;10.85;;;0.60;99.90;;;;;;4982834;28;20529;-80
2023/11/28 05:31:41;;;;;;;15.10;10.93;;;0.60;99.90;;;;;;4986723;28;20089;-80
2023/11/28 05:34:07;;;;;;;15.15;11.30;;;0.60;99.90;;;;;;4969065;28;20031;-79
2023/11/28 05:36:33;;;;;;;14.07;10.80;;;0.60;99.90;;;;;;4975795;28;20037;-80
2023/11/28 05:38:59;;;;;;;16.35;12.52;;;0.60;99.90;;;;;;4980471;28;20027;-79
2023/11/28 05:41:25;;;;;;;18.38;14.25;;;0.60;99.90;;;;;;4982488;28;20101;-81
2023/11/28 05:43:51;;;;;;;15.23;13.27;;;0.60;99.90;;;;;;4984956;28;20029;-79
2023/11/28 05:46:16;;;;;;;22.00;13.15;;;0.50;99.90;;;;;;4985284;28;20038;-79
2023/11/28 05:48:42;;;;;;;15.52;13.82;;;0.50;99.90;;;;;;4993423;28;20478;-80
2023/11/28 05:51:10;;;;;;;17.50;15.60;;;0.50;99.90;;;;;;4964405;28;20042;-79
2023/11/28 05:53:35;;;;;;;17.63;12.90;;;0.50;99.90;;;;;;4994655;28;20585;-79
2023/11/28 05:56:02;;;;;;;19.42;14.25;;;0.50;99.90;;;;;;4995519;28;20045;-80
2023/11/28 05:58:31;;;;;;;14.30;11.15;;;0.50;99.90;;;;;;4970635;28;20065;-79
2023/11/28 06:00:56;;;;;;;18.52;13.43;;;0.50;99.90;;;;;;4974325;28;20084;-78
2023/11/28 06:03:22;;;;;;;17.48;12.88;;;0.60;99.90;;;;;;4972355;28;20054;-79
2023/11/28 06:05:48;;;;;;;18.05;14.20;;;0.50;99.90;;;;;;4963687;28;20027;-79
2023/11/28 06:08:13;;;;;;;16.83;11.45;;;0.50;99.90;;;;;;4966682;28;20108;-80
2023/11/28 06:10:40;;;;;;;16.20;11.05;;;0.50;99.90;;;;;;4972716;28;20042;-79
2023/11/28 06:13:06;;;;;;;14.93;11.20;;;0.50;99.90;;;;;;4990059;28;20030;-79
2023/11/28 06:15:31;;;;;;;13.93;10.38;;;0.50;99.90;;;;;;4968214;28;20050;-79
2023/11/28 06:17:57;;;;;;;12.85;10.30;;;0.50;99.90;;;;;;4975696;28;20026;-80
2023/11/28 06:20:23;;;;;;;15.40;9.93;;;0.50;99.90;;;;;;4982466;28;20042;-79
2023/11/28 06:22:48;;;;;;;11.10;9.68;;;0.50;99.90;;;;;;4998301;28;20042;-79
2023/11/28 06:25:14;;;;;;;11.60;9.15;;;0.40;99.90;;;;;;4979885;28;20402;-79
2023/11/28 06:27:41;;;;;;;10.38;8.68;;;0.50;99.90;;;;;;4997377;28;20396;-79
2023/11/28 06:30:07;;;;;;;9.70;8.32;;;0.50;99.90;;;;;;4998923;28;20048;-80
2023/11/28 06:32:33;;;;;;;10.77;9.75;;;0.50;99.90;;;;;;4998466;28;20031;-79
2023/11/28 06:34:59;;;;;;;7.85;6.40;;;0.50;99.90;;;;;;4982990;28;20037;-78
2023/11/28 06:37:24;;;;;;;11.32;6.55;;;0.50;99.90;;;;;;4986838;28;20068;-78
2023/11/28 06:39:51;;;;;;;10.05;6.93;;;0.40;99.90;;;;;;4983554;28;20034;-78
2023/11/28 06:42:18;;;;;;;10.75;7.70;;;0.50;99.90;;;;;;4965919;28;20093;-80
2023/11/28 06:44:43;;;;;;;9.88;7.30;;;0.50;99.90;;;;;;4990264;28;20046;-79
2023/11/28 06:47:09;;;;;;;8.30;6.43;;;0.50;99.90;;;;;;4982823;28;20412;-80
2023/11/28 06:49:35;;;;;;;8.90;6.55;;;0.40;99.90;;;;;;4985928;28;20038;-80
2023/11/28 06:52:02;;;;;;;7.45;6.30;;;0.40;99.90;;;;;;4998622;28;20386;-80
2023/11/28 06:54:30;;;;;;;7.70;6.32;;;0.40;99.90;;;;;;5001048;28;20038;-78
2023/11/28 06:56:56;;;;;;;8.45;5.25;;;0.40;99.90;;;;;;4984503;28;20034;-78
2023/11/28 06:59:21;;;;;;;8.25;5.70;;;0.40;99.90;;;;;;4983648;28;20627;-78
2023/11/28 07:01:48;;;;;;;6.70;6.00;;;0.40;99.90;;;;;;4972289;28;20467;-78
2023/11/28 07:04:14;;;;;;;6.45;4.63;;;0.40;99.90;;;;;;4984669;28;20130;-78
2023/11/28 07:06:39;;;;;;;7.85;6.05;;;0.40;99.90;;;;;;5015486;28;20120;-80
2023/11/28 07:09:05;;;;;;;5.13;4.43;;;0.30;99.90;;;;;;4979948;28;20026;-78
2023/11/28 07:11:31;;;;;;;8.80;5.78;;;0.30;99.90;;;;;;4980656;28;20146;-78
2023/11/28 07:13:56;;;;;;;6.55;4.93;;;0.30;99.90;;;;;;4978485;28;20045;-78
2023/11/28 07:16:22;;;;;;;6.20;5.20;;;0.30;99.90;;;;;;4997796;28;20108;-78
2023/11/28 07:18:48;;;;;;;6.28;5.28;;;0.30;99.90;;;;;;4977615;28;20034;-78
2023/11/28 07:21:14;;;;;;;5.50;4.65;;;0.20;99.90;;;;;;4975582;28;20034;-80
2023/11/28 07:23:39;;;;;;;7.85;5.55;;;0.20;99.90;;;;;;5010371;28;20030;-78
2023/11/28 07:26:06;;;;;;;5.78;4.75;;;0.20;99.90;;;;;;5007195;28;20034;-78
2023/11/28 07:28:33;;;;;;;7.07;4.75;;;0.30;99.90;;;;;;4985112;28;20046;-79
2023/11/28 07:30:58;;;;;;;5.53;4.47;;;0.20;99.90;;;;;;4986529;28;20556;-78
2023/11/28 07:33:25;;;;;;;7.30;4.63;;;0.10;99.90;;;;;;4989370;28;20038;-77
2023/11/28 07:35:51;;;;;;;5.70;4.25;;;0.10;99.90;;;;;;4988422;28;20521;-78
2023/11/28 07:38:24;;;;;;;5.85;4.70;;;0.20;99.90;;;;;;5001320;28;20037;-79
2023/11/28 07:40:50;;;;;;;6.22;4.80;;;0.20;99.90;;;;;;4991478;28;20060;-77
2023/11/28 07:43:15;;;;;;;5.93;4.30;;;0.10;99.90;;;;;;4982664;28;20034;-78
2023/11/28 07:45:41;;;;;;;5.40;4.18;;;0.10;99.90;;;;;;4986719;28;20072;-78
2023/11/28 07:48:07;;;;;;;5.80;4.15;;;0.10;99.90;;;;;;4986227;28;20492;-79
2023/11/28 07:50:33;;;;;;;5.97;4.35;;;0.00;99.90;;;;;;5000680;28;20401;-77
2023/11/28 07:53:00;;;;;;;5.40;4.03;;;0.00;99.90;;;;;;4984277;28;20041;-79
2023/11/28 07:55:25;;;;;;;6.55;4.78;;;0.00;99.90;;;;;;4983732;28;22620;-81
2023/11/28 07:57:51;;;;;;;6.85;4.20;;;0.00;99.90;;;;;;4996117;28;20084;-81
2023/11/28 08:00:20;;;;;;;6.85;5.43;;;0.00;99.90;;;;;;4994650;28;20407;-81
2023/11/28 08:02:46;;;;;;;6.70;4.93;;;-0.10;99.90;;;;;;4995825;28;20115;-81
2023/11/28 08:05:11;;;;;;;6.57;4.45;;;-0.20;99.90;;;;;;5003008;28;20485;-81
2023/11/28 08:07:37;;;;;;;8.32;4.85;;;-0.20;99.90;;;;;;4973810;28;20042;-80
2023/11/28 08:10:05;;;;;;;5.13;4.28;;;-0.20;99.90;;;;;;4971660;28;20398;-81
2023/11/28 08:12:31;;;;;;;5.63;3.97;;;-0.20;99.90;;;;;;4981769;28;20064;-80
2023/11/28 08:14:57;;;;;;;7.18;4.90;;;-0.20;99.90;;;;;;4998018;28;20146;-81
2023/11/28 08:17:23;;;;;;;7.20;3.90;;;-0.20;99.90;;;;;;4983021;28;20402;-81
2023/11/28 08:19:50;;;;;;;7.40;5.20;;;-0.30;99.90;;;;;;4948728;28;20026;-81
2023/11/28 08:22:17;;;;;;;6.82;4.57;;;-0.30;99.90;;;;;;4993487;28;20034;-81
2023/11/28 08:24:43;;;;;;;6.10;4.05;;;-0.30;99.90;;;;;;4978806;28;20133;-79
2023/11/28 08:27:08;;;;;;;6.50;4.55;;;-0.30;99.90;;;;;;4983685;28;20117;-80
2023/11/28 08:29:34;;;;;;;7.25;5.15;;;-0.30;99.90;;;;;;4993391;28;20084;-80
2023/11/28 08:32:00;;;;;;;7.63;4.30;;;-0.40;99.90;;;;;;4992385;28;20035;-80
2023/11/28 08:34:25;;;;;;;7.15;4.88;;;-0.40;99.90;;;;;;4993985;28;20043;-81
2023/11/28 08:36:51;;;;;;;6.97;5.03;;;-0.40;99.90;;;;;;4985471;28;20516;-80
2023/11/28 08:39:17;;;;;;;6.72;4.70;;;-0.50;99.90;;;;;;4968293;28;20030;-81
2023/11/28 08:41:43;;;;;;;5.63;4.45;;;-0.50;99.90;;;;;;4974587;28;20520;-81
2023/11/28 08:44:09;;;;;;;7.95;4.65;;;-0.50;99.90;;;;;;4997093;28;20369;-81
2023/11/28 08:46:37;;;;;;;8.52;4.47;;;-0.50;99.90;;;;;;4983323;28;20507;-81
2023/11/28 08:49:05;;;;;;;5.55;4.13;;;-0.50;99.90;;;;;;4994622;28;20030;-81
2023/11/28 08:51:31;;;;;;;6.43;4.90;;;-0.50;99.90;;;;;;4989431;28;20106;-79
2023/11/28 08:53:57;;;;;;;6.05;4.28;;;-0.50;99.90;;;;;;4982334;28;20064;-81
2023/11/28 08:56:23;;;;;;;5.47;4.03;;;-0.50;99.90;;;;;;4996795;28;20058;-81
2023/11/28 08:58:50;;;;;;;5.40;4.30;;;-0.50;99.90;;;;;;4960823;28;20034;-80
2023/11/28 09:01:15;;;;;;;6.63;4.47;;;-0.50;99.90;;;;;;4978563;28;20040;-81
2023/11/28 09:03:41;;;;;;;5.93;3.90;;;-0.50;99.90;;;;;;4977821;28;20502;-81
2023/11/28 09:06:10;;;;;;;5.63;4.10;;;-0.50;99.90;;;;;;4968985;28;20042;-81
2023/11/28 09:08:36;;;;;;;8.13;3.70;;;-0.50;99.90;;;;;;4962737;28;20516;-79
2023/11/28 09:11:02;;;;;;;5.00;3.42;;;-0.50;99.90;;;;;;4977868;28;20039;-79
2023/11/28 09:13:29;;;;;;;6.68;4.05;;;-0.40;99.90;;;;;;4992032;28;20146;-79
2023/11/28 09:15:55;;;;;;;5.30;3.65;;;-0.40;99.90;;;;;;4973275;28;20158;-79
2023/11/28 09:18:20;;;;;;;5.03;4.10;;;-0.30;99.90;;;;;;4996309;28;20064;-79
2023/11/28 09:20:47;;;;;;;6.03;3.80;;;-0.30;99.90;;;;;;4995555;28;20070;-78
2023/11/28 09:23:13;;;;;;;5.03;4.43;;;-0.20;99.90;;;;;;4996987;28;20076;-80
2023/11/28 09:25:39;;;;;;;5.90;3.10;;;-0.20;99.90;;;;;;4986319;28;20042;-77
2023/11/28 09:28:04;;;;;;;5.18;4.00;;;-0.20;99.90;;;;;;4993502;28;20037;-77
2023/11/28 09:30:30;;;;;;;6.35;4.05;;;-0.10;99.90;;;;;;4973411;28;20153;-79
2023/11/28 09:32:55;;;;;;;5.50;4.35;;;-0.10;99.90;;;;;;4982734;28;20103;-78
2023/11/28 09:35:21;;;;;;;5.50;3.70;;;0.00;99.90;;;;;;4983656;28;20030;-77
2023/11/28 09:37:46;;;;;;;5.47;4.28;;;0.00;99.90;;;;;;4994231;28;20037;-80
2023/11/28 09:40:12;;;;;;;5.75;4.13;;;0.10;99.90;;;;;;5000095;28;20037;-78
2023/11/28 09:42:38;;;;;;;6.65;3.13;;;0.20;99.90;;;;;;4982557;28;20027;-79
2023/11/28 09:45:04;;;;;;;5.72;4.57;;;0.20;99.90;;;;;;4999280;28;20065;-79
2023/11/28 09:47:33;;;;;;;5.18;4.07;;;0.30;99.90;;;;;;4966070;28;20041;-78
2023/11/28 09:50:00;;;;;;;5.78;4.13;;;0.30;99.90;;;;;;4981718;28;20030;-79
2023/11/28 09:52:28;;;;;;;5.00;4.28;;;0.30;99.90;;;;;;4981774;28;20558;-78
2023/11/28 09:54:54;;;;;;;4.15;3.30;;;0.40;99.90;;;;;;4998465;28;20049;-79
2023/11/28 09:57:20;;;;;;;6.70;3.40;;;0.40;99.90;;;;;;4991275;28;20032;-78
2023/11/28 09:59:46;;;;;;;5.22;3.55;;;0.40;99.90;;;;;;4974513;28;20057;-78
2023/11/28 10:02:12;;;;;;;5.40;3.25;;;0.40;99.90;;;;;;4988681;28;20022;-79
2023/11/28 10:04:38;;;;;;;5.47;3.60;;;0.50;99.90;;;;;;4959122;28;20038;-79
2023/11/28 10:07:06;;;;;;;4.10;3.38;;;0.50;99.90;;;;;;4984142;28;20042;-78
2023/11/28 10:09:32;;;;;;;3.83;2.97;;;0.50;99.90;;;;;;4983669;28;20022;-78
2023/11/28 10:11:58;;;;;;;4.82;3.85;;;0.50;99.90;;;;;;4978156;28;20030;-79
2023/11/28 10:14:24;;;;;;;4.75;3.60;;;0.60;99.90;;;;;;5013568;28;20420;-78
2023/11/28 10:16:51;;;;;;;4.70;2.83;;;0.50;99.90;;;;;;4963255;28;20095;-78
2023/11/28 10:19:17;;;;;;;3.70;3.15;;;0.50;99.90;;;;;;4968677;28;20379;-79
2023/11/28 10:21:46;;;;;;;4.07;3.67;;;0.60;99.90;;;;;;4964989;28;20541;-78
2023/11/28 10:24:12;;;;;;;6.05;3.72;;;0.60;99.90;;;;;;4972442;28;20047;-79
2023/11/28 10:26:38;;;;;;;3.88;3.08;;;0.60;99.90;;;;;;4992488;28;20045;-79
2023/11/28 10:29:06;;;;;;;3.75;2.92;;;0.60;99.90;;;;;;4963649;28;20026;-79
2023/11/28 10:31:36;;;;;;;3.63;2.80;;;0.60;99.90;;;;;;4960004;28;20030;-78
2023/11/28 10:34:08;;;;;;;5.03;3.20;;;0.60;99.90;;;;;;4986592;28;20041;-79
2023/11/28 10:36:37;;;;;;;4.28;2.55;;;0.60;99.90;;;;;;4980095;28;20073;-79
2023/11/28 10:39:03;;;;;;;4.65;3.97;;;0.70;99.90;;;;;;4966252;28;20045;-78
2023/11/28 10:41:32;;;;;;;4.70;3.67;;;0.60;99.90;;;;;;4976558;28;20042;-78
2023/11/28 10:43:58;;;;;;;4.47;3.40;;;0.60;99.90;;;;;;4991643;28;20034;-77
2023/11/28 10:46:24;;;;;;;5.32;3.40;;;0.60;99.90;;;;;;4965997;28;20441;-78
2023/11/28 10:48:49;;;;;;;5.75;3.80;;;0.60;99.90;;;;;;4985019;28;20039;-78
2023/11/28 10:51:15;;;;;;;6.63;4.32;;;0.60;99.90;;;;;;5011980;28;20038;-78
2023/11/28 10:53:41;;;;;;;5.25;4.10;;;0.70;99.90;;;;;;4968554;28;20299;-79
2023/11/28 10:56:07;;;;;;;5.93;4.50;;;0.70;99.90;;;;;;4953364;28;20093;-79
2023/11/28 10:58:33;;;;;;;5.70;4.25;;;0.70;99.90;;;;;;4998341;28;20158;-79
2023/11/28 11:01:02;;;;;;;6.28;4.10;;;0.70;99.90;;;;;;4956505;28;20113;-78
2023/11/28 11:03:28;;;;;;;5.40;4.13;;;0.70;99.90;;;;;;4973056;28;20038;-78
2023/11/28 11:05:54;;;;;;;7.20;4.88;;;0.70;99.90;;;;;;4976437;28;20101;-78
2023/11/28 11:08:21;;;;;;;9.25;5.28;;;0.90;99.90;;;;;;4972503;28;20031;-78
2023/11/28 11:10:47;;;;;;;7.05;4.90;;;0.70;99.90;;;;;;4991681;28;20049;-79
2023/11/28 11:13:25;;;;;;;6.13;4.50;;;0.70;99.90;;;;;;5005171;28;20030;-79
2023/11/28 11:16:18;;;;;;;7.68;4.82;;;0.70;99.90;;;;;;5008508;28;20043;-79
2023/11/28 11:18:46;;;;;;;5.60;4.50;;;0.70;99.90;;;;;;4996425;28;20665;-78
2023/11/28 11:21:28;;;;;;;5.90;4.55;;;0.80;99.90;;;;;;4996053;28;20030;-79
2023/11/28 11:23:54;;;;;;;6.97;5.20;;;0.80;99.90;;;;;;4996072;28;20509;-80
2023/11/28 11:26:39;;;;;;;7.60;4.78;;;0.70;99.90;;;;;;4985600;28;20042;-81
2023/11/28 11:29:23;;;;;;;8.52;4.57;;;0.70;99.90;;;;;;4996133;28;20493;-80
2023/11/28 11:31:53;;;;;;;7.55;4.30;;;0.80;99.90;;;;;;5001442;28;20049;-81
2023/11/28 11:34:48;;;;;;;6.13;4.63;;;0.80;99.90;;;;;;5005113;28;20031;-81
2023/11/28 11:37:15;;;;;;;8.30;4.20;;;0.70;99.90;;;;;;4984581;28;20041;-81
2023/11/28 11:39:47;;;;;;;6.18;3.92;;;0.70;99.90;;;;;;4984857;28;20192;-81
2023/11/28 11:42:23;;;;;;;7.90;4.88;;;0.80;99.90;;;;;;4971824;28;20041;-81
2023/11/28 11:44:53;;;;;;;7.05;3.80;;;0.80;99.90;;;;;;4987185;28;20042;-80
2023/11/28 11:47:21;;;;;;;5.45;4.13;;;0.80;99.90;;;;;;4966074;28;20030;-80
2023/11/28 11:49:48;;;;;;;5.18;4.40;;;0.80;99.90;;;;;;4984684;28;20483;-79
2023/11/28 11:52:14;;;;;;;7.07;3.90;;;0.90;99.90;;;;;;4998527;28;20538;-80
2023/11/28 11:54:41;;;;;;;7.43;4.57;;;0.90;99.90;;;;;;4987744;28;20029;-80
2023/11/28 11:57:06;;;;;;;6.50;4.55;;;0.90;99.90;;;;;;4984178;28;20502;-80
2023/11/28 11:59:32;;;;;;;5.72;4.22;;;0.90;99.90;;;;;;4983853;28;20030;-81
2023/11/28 12:01:58;;;;;;;9.23;4.82;;;0.90;99.90;;;;;;4984725;28;20034;-81
2023/11/28 12:04:26;;;;;;;8.32;5.03;;;1.00;99.90;;;;;;4992944;28;20041;-81
2023/11/28 12:07:13;;;;;;;5.65;4.55;;;1.00;99.90;;;;;;4981873;28;20049;-80
2023/11/28 12:09:39;;;;;;;6.10;4.40;;;0.90;99.90;;;;;;4995554;28;20061;-80
2023/11/28 12:12:14;;;;;;;6.10;4.38;;;0.90;99.90;;;;;;4985026;28;20032;-80
2023/11/28 12:14:40;;;;;;;8.23;5.38;;;1.00;99.90;;;;;;4984078;28;20038;-81
2023/11/28 12:17:06;;;;;;;6.18;5.00;;;1.00;99.90;;;;;;4979954;28;20052;-81
2023/11/28 12:19:32;;;;;;;5.88;4.10;;;1.00;99.90;;;;;;4951796;28;20439;-80
2023/11/28 12:22:01;;;;;;;5.75;4.40;;;1.00;99.90;;;;;;4978962;28;20400;-81
2023/11/28 12:24:28;;;;;;;8.43;4.65;;;1.00;99.90;;;;;;4997778;28;20041;-80
2023/11/28 12:26:55;;;;;;;6.75;4.50;;;1.00;99.90;;;;;;4983247;28;20034;-80
2023/11/28 12:29:21;;;;;;;7.00;4.78;;;1.10;99.90;;;;;;4999280;28;20057;-80
2023/11/28 12:31:47;;;;;;;6.15;4.20;;;1.20;99.90;;;;;;4985732;28;20512;-81
2023/11/28 12:34:12;;;;;;;5.80;3.80;;;1.20;99.90;;;;;;4988861;28;20042;-78
2023/11/28 12:36:43;;;;;;;6.78;5.25;;;1.20;99.90;;;;;;4983654;28;20042;-78
2023/11/28 12:39:08;;;;;;;11.85;4.28;;;1.20;99.90;;;;;;5016602;28;20523;-79
2023/11/28 12:41:37;;;;;;;6.68;4.35;;;1.20;99.90;;;;;;4997005;28;20038;-78
2023/11/28 12:44:07;;;;;;;5.43;4.38;;;1.10;99.90;;;;;;4975160;28;20502;-79
2023/11/28 12:46:32;;;;;;;6.57;4.63;;;1.10;99.90;;;;;;4973720;28;20038;-80